Flight Track Log - Related Links

Times and Time Zones

All times are in EDT time to prevent confusion due to time zone crossing. See the AWE1788 flight status page for this flight to view local times or setup timezone preferences in your user account.

Time Position Orientation Groundspeed Altitude Reporting Facility
EDT Latitude Longitude Course Direction KTS MPH feet Rate Location/Type
Sun 10:57:18 PM 35.1390 -80.9560 214° Southwest 223 257 3,000  Level FlightAware ADS-B
Sun 10:57:34 PM 35.1310 -80.9700 235° Southwest 240 276 3,300 2,250 Climbing FlightAware ADS-B
Sun 10:57:58 PM 35.1180 -81.0040 245° Southwest 245 282 4,500 2,739 Climbing FlightAware ADS-B
Sun 10:58:20 PM 35.1150 -81.0330 263° West 249 287 5,400 2,455 Climbing FlightAware ADS-B
Sun 10:58:42 PM 35.1240 -81.0620 291° West 251 289 6,300 2,211 Climbing FlightAware ADS-B
Sun 10:58:58 PM 35.1400 -81.0740 328° Northwest 256 295 6,800 2,000 Climbing FlightAware ADS-B
Sun 10:59:06 PM 35.1490 -81.0760 350° North 257 296 7,100 1,500 Climbing FlightAware ADS-B
Sun 10:59:26 PM 35.1740 -81.0700 11° North 274 315 7,500 1,625 Climbing FlightAware ADS-B
Sun 10:59:54 PM 35.2090 -81.0580 16° North 289 333 8,400 2,125 Climbing FlightAware ADS-B
Sun 11:00:14 PM 35.2350 -81.0490 16° North 293 337 9,200 2,000 Climbing FlightAware ADS-B
Sun 11:00:54 PM 35.2900 -81.0310 15° North 315 362 10,400 1,385 Climbing FlightAware ADS-B
Sun 11:01:32 PM 35.3460 -81.0120 15° North 349 402 11,000 1,171 Climbing FlightAware ADS-B
Sun 11:02:16 PM 35.4180 -80.9870 16° North 377 434 12,000 1,575 Climbing FlightAware ADS-B
Sun 11:02:52 PM 35.4800 -80.9660 15° North 388 447 13,100 1,704 Climbing FlightAware ADS-B
Sun 11:03:37 PM 35.5530 -80.9540 North 392 451 14,300 1,833 Climbing FlightAware ADS-B
Sun 11:04:04 PM 35.5980 -80.9850 331° Northwest 391 450 15,300 1,881 Climbing FlightAware ADS-B
Sun 11:04:44 PM 35.6560 -81.0460 319° Northwest 398 458 16,400 835 Climbing FlightAware ADS-B
Sun 11:05:23 PM 35.7020 -81.0950 319° Northwest 398 458 16,400  Level FlightAware ADS-B
Sun 11:06:11 PM 35.7590 -81.1560 319° Northwest 398 458 16,400 1,800 Level FlightAware ADS-B
Sun 11:07:03 PM 35.8420 -81.2570 315° West 413 475 19,400 2,967 Climbing FlightAware ADS-B
Sun 11:07:42 PM 35.8920 -81.3310 310° West 419 482 20,900 1,768 Climbing FlightAware ADS-B
Sun 11:08:38 PM 35.9630 -81.4330 311° West 421 484 22,200 1,200 Climbing FlightAware ADS-B
Sun 11:09:32 PM 36.0300 -81.5270 311° West 431 496 23,100 1,021 Climbing FlightAware ADS-B
Sun 11:10:12 PM 36.0860 -81.6060 311° West 436 502 23,800 1,024 Climbing FlightAware ADS-B
Sun 11:10:54 PM 36.1410 -81.6820 312° West 439 505 24,500 1,063 Climbing FlightAware ADS-B
Sun 11:11:31 PM 36.1993 -81.7629 312° West 446 513 25,200 1,059 Climbing FlightAware ADS-B
Sun 11:12:02 PM 36.2428 -81.8231 312° West 447 514 25,700 909 Climbing FlightAware ADS-B
Sun 11:12:37 PM 36.2916 -81.8895 312° West 451 519 26,200 873 Climbing FlightAware ADS-B
Sun 11:12:57 PM 36.3209 -81.9270 314° West 455 524 26,500 2,000 Climbing FlightAware ADS-B
Sun 11:13:28 PM 36.3694 -81.9771 320° Northwest 435 501 27,900 2,032 Climbing FlightAware ADS-B
Sun 11:13:59 PM 36.4173 -82.0243 322° Northwest 430 495 28,600 806 Climbing FlightAware ADS-B
Sun 11:14:35 PM 36.4746 -82.0809 322° Northwest 441 507 28,800 364 Climbing FlightAware ADS-B
Sun 11:15:05 PM 36.5231 -82.1288 322° Northwest 448 516 29,000 492 Climbing FlightAware ADS-B
Sun 11:15:36 PM 36.5741 -82.1793 322° Northwest 455 524 29,300 581 Climbing FlightAware ADS-B
Sun 11:16:07 PM 36.6251 -82.2299 321° Northwest 458 527 29,600 762 Climbing FlightAware ADS-B
Sun 11:16:39 PM 36.6786 -82.2828 322° Northwest 457 526 30,100 904 Climbing FlightAware ADS-B
Sun 11:17:20 PM 36.7454 -82.3492 321° Northwest 455 524 30,700 917 Climbing FlightAware ADS-B
Sun 11:17:51 PM 36.7961 -82.3997 321° Northwest 455 524 31,200 968 Climbing FlightAware ADS-B
Sun 11:18:22 PM 36.8465 -82.4500 321° Northwest 450 518 31,700 774 Climbing FlightAware ADS-B
Sun 11:18:53 PM 36.8973 -82.5008 321° Northwest 452 520 32,000 286 Climbing FlightAware ADS-B
Sun 11:19:25 PM 36.9487 -82.5523 321° Northwest 445 512 32,000  Level FlightAware ADS-B
Sun 11:19:55 PM 36.9979 -82.6017 321° Northwest 447 514 32,000  Level FlightAware ADS-B
Sun 11:20:30 PM 37.0545 -82.6585 321° Northwest 450 518 32,000  Level FlightAware ADS-B
Sun 11:21:00 PM 37.1034 -82.7078 321° Northwest 450 518 32,000  Level FlightAware ADS-B
Sun 11:21:31 PM 37.1532 -82.7580 321° Northwest 450 518 32,000  Level FlightAware ADS-B
Sun 11:22:03 PM 37.2066 -82.8069 324° Northwest 453 521 32,000  Level FlightAware ADS-B
Sun 11:22:35 PM 37.2628 -82.8532 327° Northwest 453 521 32,000  Level FlightAware ADS-B
Sun 11:23:09 PM 37.3226 -82.9027 327° Northwest 454 522 32,000  Level FlightAware ADS-B
Sun 11:23:41 PM 37.3800 -82.9503 327° Northwest 454 522 32,000  Level FlightAware ADS-B
Sun 11:24:17 PM 37.4425 -83.0024 327° Northwest 454 522 32,000  Level FlightAware ADS-B
Sun 11:24:54 PM 37.5069 -83.0562 326° Northwest 453 521 32,000  Level FlightAware ADS-B
Sun 11:25:24 PM 37.5594 -83.1001 326° Northwest 452 520 32,000  Level FlightAware ADS-B
Sun 11:25:57 PM 37.6164 -83.1478 326° Northwest 451 519 32,000  Level FlightAware ADS-B
Sun 11:26:30 PM 37.6736 -83.1957 326° Northwest 452 520 32,000  Level FlightAware ADS-B
Sun 11:27:00 PM 37.7267 -83.2404 326° Northwest 452 520 32,000  Level FlightAware ADS-B
Sun 11:27:30 PM 37.7791 -83.2843 326° Northwest 452 520 32,000  Level FlightAware ADS-B
Sun 11:28:03 PM 37.8363 -83.3326 326° Northwest 453 521 32,000  Level FlightAware ADS-B
Sun 11:28:51 PM 37.9195 -83.4028 326° Northwest 451 519 32,000  Level FlightAware ADS-B
Sun 11:29:22 PM 37.9739 -83.4488 326° Northwest 453 521 32,000  Level FlightAware ADS-B
Sun 11:29:53 PM 38.0271 -83.4939 326° Northwest 453 521 32,000  Level FlightAware ADS-B
Sun 11:30:31 PM 38.0936 -83.5506 326° Northwest 452 520 32,000  Level FlightAware ADS-B
Sun 11:31:02 PM 38.1477 -83.5966 326° Northwest 450 518 32,000 71 Level FlightAware ADS-B
Sun 11:31:56 PM 38.2406 -83.6758 326° Northwest 448 516 32,100  Climbing FlightAware ADS-B
Sun 11:32:51 PM 38.3337 -83.7555 326° Northwest 443 510 32,000 -32 Descending FlightAware ADS-B
Sun 11:34:23 PM 38.4700 -83.9060 319° Northwest 32,000  Level FlightAware ADS-B
Sun 11:35:05 PM 38.5390 -83.9840 319° Northwest 441 507 32,000  Level FlightAware ADS-B
Sun 11:35:48 PM 38.5960 -84.0490 318° Northwest 442 509 32,000 63 Level FlightAware ADS-B
Sun 11:36:40 PM 38.6730 -84.1330 320° Northwest 443 510 32,100 68 Climbing FlightAware ADS-B
Sun 11:37:16 PM 38.7200 -84.1860 319° Northwest 443 510 32,100 -82 Level FlightAware ADS-B
Sun 11:37:53 PM 38.7860 -84.2800 312° West 439 505 32,000 -70 Descending FlightAware ADS-B
Sun 11:38:42 PM 38.8610 -84.3750 315° West 441 507 32,000 62 Level FlightAware ADS-B
Sun 11:39:30 PM 38.9350 -84.4530 321° Northwest 447 514 32,100  Climbing FlightAware ADS-B
Sun 11:40:29 PM 39.0300 -84.5360 326° Northwest 446 513 32,000 -59 Descending FlightAware ADS-B
Sun 11:41:11 PM 39.1070 -84.6020 326° Northwest 446 513 32,000  Level FlightAware ADS-B
Sun 11:41:51 PM 39.1820 -84.6590 330° Northwest 448 516 32,000  Level FlightAware ADS-B
Sun 11:42:27 PM 39.2460 -84.7080 329° Northwest 447 514 32,000  Level FlightAware ADS-B
Sun 11:43:05 PM 39.3130 -84.7590 330° Northwest 448 516 32,000  Level FlightAware ADS-B
Sun 11:43:51 PM 39.3960 -84.8220 330° Northwest 447 514 32,000 75 Level FlightAware ADS-B
Sun 11:44:25 PM 39.4530 -84.8660 329° Northwest 446 513 32,100  Climbing FlightAware ADS-B
Sun 11:45:09 PM 39.5340 -84.9280 329° Northwest 443 510 32,000 -71 Descending FlightAware ADS-B
Sun 11:45:49 PM 39.6050 -84.9820 330° Northwest 439 505 32,000  Level FlightAware ADS-B
Sun 11:46:33 PM 39.6800 -85.0410 329° Northwest 439 505 32,000  Level FlightAware ADS-B
Sun 11:47:17 PM 39.7550 -85.0990 329° Northwest 438 504 32,000  Level FlightAware ADS-B
Sun 11:47:57 PM 39.8250 -85.1530 329° Northwest 435 501 32,000  Level FlightAware ADS-B
Sun 11:48:41 PM 39.9010 -85.2120 329° Northwest 435 501 32,000  Level FlightAware ADS-B
Sun 11:49:21 PM 39.9700 -85.2660 329° Northwest 433 498 32,000  Level FlightAware ADS-B
Sun 11:50:05 PM 40.0450 -85.3250 329° Northwest 432 497 32,000  Level FlightAware ADS-B
Sun 11:50:45 PM 40.1140 -85.3790 329° Northwest 432 497 32,000  Level FlightAware ADS-B
Sun 11:51:27 PM 40.1880 -85.4370 329° Northwest 433 498 32,000  Level FlightAware ADS-B
Sun 11:52:09 PM 40.2570 -85.4920 329° Northwest 434 499 32,000  Level FlightAware ADS-B
Sun 11:52:49 PM 40.3210 -85.5560 323° Northwest 427 491 32,000  Level FlightAware ADS-B
Sun 11:53:25 PM 40.3710 -85.6230 314° West 427 491 32,000  Level FlightAware ADS-B
Sun 11:54:08 PM 40.4270 -85.7000 314° West 428 493 32,000 71 Level FlightAware ADS-B
Sun 11:54:49 PM 40.4850 -85.7810 313° West 428 493 32,100 71 Climbing FlightAware ADS-B
Sun 11:55:33 PM 40.5490 -85.8660 315° West 429 494 32,100 -71 Level FlightAware ADS-B
Sun 11:56:13 PM 40.6010 -85.9380 314° West 428 493 32,000 -143 Descending FlightAware ADS-B
Sun 11:56:57 PM 40.6630 -86.0230 314° West 428 493 31,900 -929 Descending FlightAware ADS-B
Sun 11:57:37 PM 40.7180 -86.0980 314° West 426 490 30,700 -1,875 Descending FlightAware ADS-B
Sun 11:58:17 PM 40.7700 -86.1710 313° West 422 486 29,400 -2,132 Descending FlightAware ADS-B
Sun 11:58:53 PM 40.8190 -86.2390 314° West 415 478 28,000 -2,195 Descending FlightAware ADS-B
Sun 11:59:39 PM 40.8800 -86.3230 314° West 415 478 26,400 -2,122 Descending FlightAware ADS-B
Mon 12:00:15 AM 40.9300 -86.3920 314° West 408 470 25,100 -2,053 Descending FlightAware ADS-B
Mon 12:00:55 AM 40.9780 -86.4600 313° West 402 463 23,800 -2,051 Descending FlightAware ADS-B
Mon 12:01:34 AM 41.0290 -86.5310 314° West 394 453 22,400 -2,175 Descending FlightAware ADS-B
Mon 12:02:15 AM 41.0800 -86.6020 314° West 386 444 20,900 -2,069 Descending FlightAware ADS-B
Mon 12:03:01 AM 41.1350 -86.6790 313° West 379 436 19,400 -2,023 Descending FlightAware ADS-B
Mon 12:03:41 AM 41.1830 -86.7470 313° West 374 430 18,000 -2,143 Descending FlightAware ADS-B
Mon 12:04:25 AM 41.2350 -86.8200 313° West 369 425 16,400 -2,143 Descending FlightAware ADS-B
Mon 12:05:05 AM 41.2810 -86.8860 313° West 365 420 15,000 -2,211 Descending FlightAware ADS-B
Mon 12:05:41 AM 41.3250 -86.9480 313° West 362 417 13,600 -2,132 Descending FlightAware ADS-B
Mon 12:06:21 AM 41.3690 -87.0110 313° West 360 414 12,300 -1,829 Descending FlightAware ADS-B
Mon 12:07:03 AM 41.4180 -87.0810 313° West 366 421 11,100 -1,000 Descending FlightAware ADS-B
Mon 12:07:39 AM 41.4610 -87.1410 314° West 367 422 11,000 -615 Descending FlightAware ADS-B
Mon 12:08:21 AM 41.5070 -87.2070 313° West 357 411 10,300 -714 Descending FlightAware ADS-B
Mon 12:09:03 AM 41.5550 -87.2770 313° West 359 413 10,000 -214 Descending FlightAware ADS-B
Mon 12:09:45 AM 41.6020 -87.3440 313° West 356 410 10,000  Level FlightAware ADS-B
Mon 12:10:29 AM 41.6520 -87.4160 313° West 357 411 10,000  Level FlightAware ADS-B
Mon 12:11:03 AM 41.6900 -87.4700 313° West 357 411 10,000  Level FlightAware ADS-B
Mon 12:11:51 AM 41.7440 -87.5500 312° West 357 411 10,000  Level FlightAware ADS-B
Mon 12:12:29 AM 41.7860 -87.6100 313° West 354 407 10,000 -77 Level FlightAware ADS-B
Mon 12:13:09 AM 41.8300 -87.6740 313° West 337 388 9,900 -353 Descending FlightAware ADS-B
Mon 12:13:37 AM 41.8540 -87.7200 305° West 309 356 9,600 -750 Descending FlightAware ADS-B
Mon 12:14:05 AM 41.8670 -87.7690 290° West 290 334 9,200 -980 Descending FlightAware ADS-B
Mon 12:14:26 AM 41.8760 -87.8060 288° West 284 327 8,800 -1,347 Descending FlightAware ADS-B
Mon 12:14:54 AM 41.8830 -87.8530 281° West 276 318 8,100 -1,607 Descending FlightAware ADS-B
Mon 12:15:22 AM 41.8820 -87.9020 268° West 278 320 7,300 -1,179 Descending FlightAware ADS-B
Mon 12:15:50 AM 41.8820 -87.9500 270° West 273 314 7,000 -409 Descending FlightAware ADS-B
Mon 12:16:06 AM 41.8810 -87.9760 267° West 255 293 7,000 -167 Level FlightAware ADS-B
Mon 12:16:26 AM 41.8810 -88.0060 270° West 239 275 6,900 -667 Descending FlightAware ADS-B
Mon 12:16:42 AM 41.8810 -88.0290 270° West 230 265 6,600 -1,421 Descending FlightAware ADS-B
Mon 12:17:04 AM 41.8800 -88.0580 267° West 227 261 6,000 -1,731 Descending FlightAware ADS-B
Mon 12:17:34 AM 41.8800 -88.1020 270° West 227 261 5,100 -1,742 Descending FlightAware ADS-B
Mon 12:18:06 AM 41.8800 -88.1480 270° West 228 262 4,200 -1,119 Descending FlightAware ADS-B
Mon 12:18:33 AM 41.8890 -88.1820 290° West 235 270 4,000 -300 Descending FlightAware ADS-B
Mon 12:18:46 AM 41.9030 -88.1920 332° Northwest 238 274 4,000  Level FlightAware ADS-B
Mon 12:19:02 AM 41.9200 -88.1940 355° North 224 258 4,000  Level FlightAware ADS-B
Mon 12:19:12 AM 41.9300 -88.1950 356° North 222 255 4,000  Level FlightAware ADS-B
Mon 12:19:41 AM 41.9540 -88.1800 25° Northeast 216 249 4,000  Level FlightAware ADS-B
Mon 12:19:53 AM 41.9600 -88.1650 62° Northeast 211 243 4,000 -903 Level FlightAware ADS-B
Mon 12:21:14 AM 41.9690 -88.0650 83° East 183 211 2,600 -1,043 Descending FlightAware ADS-B
Mon 12:21:25 AM 41.9690 -88.0540 90° East 173 199 2,400 -947 Descending FlightAware ADS-B
Mon 12:21:52 AM 41.9690 -88.0270 90° East 153 176 2,000 -737 Descending FlightAware ADS-B
Mon 12:22:22 AM 41.9690 -87.9990 90° East 148 170 1,700 -652 Descending FlightAware ADS-B
Mon 12:22:38 AM 41.9690 -87.9840 90° East 145 167 1,500 -750 Descending FlightAware ADS-B
Mon 12:23:02 AM 41.9690 -87.9630 90° East 143 165 1,200 -750 Descending FlightAware ADS-B
Mon 12:23:34 AM 41.9667 -87.9333 90° East 146 168 800 -750 Descending Chicago TRACON
Mon 12:25:00 AM 41.9667 -87.9000 63° Northeast  Level FlightAware Approximate

Login

Don't have an account? Register now (free) for customized features, flight alerts, and more!